createdAt,value
2019-02-09T00:00:13.559Z,13.80
2019-02-09T00:04:17.772Z,16.17
2019-02-09T00:08:22.166Z,18.93
2019-02-09T00:12:26.324Z,16.30
2019-02-09T00:16:30.523Z,17.77
2019-02-09T00:20:34.681Z,16.70
2019-02-09T00:24:38.908Z,17.70
2019-02-09T00:28:43.144Z,16.63
2019-02-09T00:32:47.386Z,19.37
2019-02-09T00:36:51.635Z,20.27
2019-02-09T00:40:55.898Z,22.10
2019-02-09T00:45:00.194Z,12.60
2019-02-09T00:49:04.886Z,16.70
2019-02-09T00:53:09.096Z,13.67
2019-02-09T00:57:13.639Z,16.80
2019-02-09T01:01:17.881Z,16.83
2019-02-09T01:05:25.560Z,17.07
2019-02-09T01:09:29.758Z,14.93
2019-02-09T01:13:33.960Z,14.63
2019-02-09T01:17:38.114Z,13.57
2019-02-09T01:21:42.309Z,13.77
2019-02-09T01:25:46.518Z,14.80
2019-02-09T01:29:50.744Z,13.83
2019-02-09T01:33:54.950Z,17.07
2019-02-09T01:37:59.150Z,14.43
2019-02-09T01:42:03.335Z,13.67
2019-02-09T01:46:07.571Z,15.50
2019-02-09T01:50:13.100Z,10.53
2019-02-09T01:54:17.313Z,16.10
2019-02-09T01:58:21.489Z,15.67
2019-02-09T02:02:25.673Z,13.40
2019-02-09T02:06:29.885Z,14.10
2019-02-09T02:10:36.011Z,16.60
2019-02-09T02:14:40.210Z,14.03
2019-02-09T02:18:44.405Z,12.63
2019-02-09T02:22:48.586Z,15.27
2019-02-09T02:26:52.785Z,14.53
2019-02-09T02:30:57.016Z,11.90
2019-02-09T02:35:01.234Z,14.03
2019-02-09T02:39:10.132Z,16.40
2019-02-09T02:43:14.338Z,12.27
2019-02-09T02:47:18.866Z,14.03
2019-02-09T02:51:23.075Z,17.27
2019-02-09T02:55:27.924Z,14.40
2019-02-09T02:59:32.415Z,13.97
2019-02-09T03:03:36.629Z,16.40
2019-02-09T03:07:40.940Z,16.10
2019-02-09T03:11:45.142Z,12.90
2019-02-09T03:15:49.801Z,14.30
2019-02-09T03:19:54.010Z,15.33
2019-02-09T03:23:58.450Z,13.97
2019-02-09T03:28:02.664Z,15.00
2019-02-09T03:32:10.740Z,12.70
2019-02-09T03:36:13.498Z,15.60
2019-02-09T03:40:19.284Z,12.47
2019-02-09T03:44:23.491Z,11.80
2019-02-09T03:48:27.715Z,11.73
2019-02-09T03:52:32.163Z,11.20
2019-02-09T03:56:36.366Z,13.90
2019-02-09T04:00:40.567Z,12.63
2019-02-09T04:04:44.726Z,15.80
2019-02-09T04:08:49.023Z,15.53
2019-02-09T04:12:53.277Z,17.33
2019-02-09T04:16:57.793Z,14.13
2019-02-09T04:21:03.018Z,11.53
2019-02-09T04:25:08.349Z,12.60
2019-02-09T04:29:12.570Z,10.20
2019-02-09T04:33:16.814Z,15.53
2019-02-09T04:37:21.026Z,10.97
2019-02-09T04:41:25.225Z,14.40
2019-02-09T04:45:29.519Z,11.90
2019-02-09T04:49:33.686Z,13.73
2019-02-09T04:53:38.090Z,14.87
2019-02-09T04:57:42.265Z,15.33
2019-02-09T05:01:46.426Z,15.03
2019-02-09T05:05:50.634Z,16.80
2019-02-09T05:09:54.863Z,19.50
2019-02-09T05:13:59.133Z,15.37
2019-02-09T05:18:03.322Z,15.67
2019-02-09T05:22:07.520Z,15.73
2019-02-09T05:26:11.723Z,15.20
2019-02-09T05:30:18.508Z,15.87
2019-02-09T05:34:22.751Z,13.13
2019-02-09T05:38:27.332Z,18.00
2019-02-09T05:42:31.529Z,17.40
2019-02-09T05:46:35.763Z,16.30
2019-02-09T05:50:39.980Z,13.63
2019-02-09T05:54:44.510Z,15.27
2019-02-09T05:58:48.696Z,15.50
2019-02-09T06:02:52.883Z,14.90
2019-02-09T06:06:57.044Z,15.23
2019-02-09T06:11:01.452Z,17.67
2019-02-09T06:15:06.547Z,19.00
2019-02-09T06:19:10.727Z,17.03
2019-02-09T06:23:14.929Z,14.37
2019-02-09T06:27:19.193Z,18.37
2019-02-09T06:31:23.368Z,14.30
2019-02-09T06:35:27.829Z,14.97
2019-02-09T06:39:32.037Z,15.07
2019-02-09T06:43:36.247Z,14.27
2019-02-09T06:47:40.423Z,16.67
2019-02-09T06:51:45.230Z,15.80
2019-02-09T06:55:49.396Z,19.70
2019-02-09T06:59:53.607Z,17.10
2019-02-09T07:03:58.101Z,14.07
2019-02-09T07:08:02.296Z,18.10
2019-02-09T07:12:06.650Z,14.60
2019-02-09T07:16:10.818Z,17.03
2019-02-09T07:20:15.743Z,17.03
2019-02-09T07:24:19.910Z,14.93
2019-02-09T07:28:24.107Z,14.73
2019-02-09T07:32:28.300Z,17.97
2019-02-09T07:36:32.496Z,15.57
2019-02-09T07:40:36.709Z,16.27
2019-02-09T07:44:40.929Z,19.03
2019-02-09T07:48:45.129Z,17.17
2019-02-09T07:52:49.880Z,17.93
2019-02-09T07:56:54.091Z,18.50
2019-02-09T08:00:58.244Z,17.07
2019-02-09T08:05:02.448Z,15.73
2019-02-09T08:09:11.534Z,16.17
2019-02-09T08:13:15.697Z,16.30
2019-02-09T08:17:19.900Z,16.83
2019-02-09T08:21:24.164Z,17.57
2019-02-09T08:25:30.581Z,20.33
2019-02-09T08:29:34.803Z,25.30
2019-02-09T08:33:39.032Z,21.90
2019-02-09T08:37:43.304Z,13.33
2019-02-09T08:41:47.537Z,17.27
2019-02-09T08:45:52.099Z,16.70
2019-02-09T08:49:56.281Z,15.67
2019-02-09T08:54:00.479Z,18.83
2019-02-09T08:58:05.057Z,21.90
2019-02-09T09:02:09.270Z,20.00
2019-02-09T09:06:13.431Z,17.17
2019-02-09T09:10:19.275Z,24.23
2019-02-09T09:14:23.459Z,19.83
2019-02-09T09:18:27.666Z,21.23
2019-02-09T09:22:31.876Z,19.37
2019-02-09T09:26:36.058Z,23.40
2019-02-09T09:30:40.423Z,20.67
2019-02-09T09:34:44.630Z,22.20
2019-02-09T09:38:48.844Z,20.97
2019-02-09T09:42:53.408Z,21.43
2019-02-09T09:46:57.615Z,24.03
2019-02-09T09:51:02.314Z,22.17
2019-02-09T09:55:07.052Z,20.90
2019-02-09T09:59:11.220Z,22.93
2019-02-09T10:03:15.433Z,20.77
2019-02-09T10:07:19.638Z,24.50
2019-02-09T10:11:23.890Z,20.87
2019-02-09T10:15:28.586Z,23.77
2019-02-09T10:19:32.785Z,28.50
2019-02-09T10:23:36.998Z,20.67
2019-02-09T10:27:41.216Z,23.47
2019-02-09T10:31:45.413Z,23.13
2019-02-09T10:35:49.604Z,23.20
2019-02-09T10:39:53.828Z,25.30
2019-02-09T10:43:58.385Z,21.53
2019-02-09T10:48:02.769Z,23.40
2019-02-09T10:52:06.936Z,21.03
2019-02-09T10:56:11.246Z,21.20
2019-02-09T11:00:19.184Z,22.37
2019-02-09T11:04:23.397Z,22.93
2019-02-09T11:08:27.668Z,23.20
2019-02-09T11:12:31.894Z,26.10
2019-02-09T11:16:36.160Z,27.20
2019-02-09T11:20:40.374Z,23.87
2019-02-09T11:24:44.599Z,25.53
2019-02-09T11:28:48.882Z,23.33
2019-02-09T11:33:01.558Z,23.33
2019-02-09T11:36:59.364Z,23.33
2019-02-09T11:41:03.615Z,21.07
2019-02-09T11:45:11.718Z,23.57
2019-02-09T11:49:15.914Z,21.70
2019-02-09T11:53:20.124Z,24.73
2019-02-09T11:57:24.337Z,22.03
2019-02-09T12:01:28.545Z,21.73
2019-02-09T12:05:32.714Z,26.00
2019-02-09T12:09:36.936Z,19.90
2019-02-09T12:13:41.540Z,18.10
2019-02-09T12:17:45.928Z,21.97
2019-02-09T12:21:50.284Z,26.73
2019-02-09T12:25:54.894Z,21.97
2019-02-09T12:29:59.122Z,20.17
2019-02-09T12:34:03.296Z,19.47
2019-02-09T12:38:08.227Z,22.87
2019-02-09T12:42:12.435Z,21.03
2019-02-09T12:46:16.740Z,22.83
2019-02-09T12:50:23.723Z,20.67
2019-02-09T12:54:27.967Z,19.73
2019-02-09T12:58:32.182Z,21.17
2019-02-09T13:02:36.580Z,20.97
2019-02-09T13:06:40.792Z,22.17
2019-02-09T13:10:45.020Z,22.87
2019-02-09T13:14:49.255Z,20.13
2019-02-09T13:18:53.418Z,18.07
2019-02-09T13:22:58.631Z,19.13
2019-02-09T13:27:02.833Z,19.73
2019-02-09T13:31:07.078Z,22.93
2019-02-09T13:35:11.967Z,18.97
2019-02-09T13:39:16.134Z,17.03
2019-02-09T13:43:20.307Z,19.60
2019-02-09T13:47:24.926Z,17.63
2019-02-09T13:51:29.140Z,18.77
2019-02-09T13:55:33.329Z,18.57
2019-02-09T13:59:37.591Z,19.87
2019-02-09T14:03:46.962Z,18.47
2019-02-09T14:07:48.064Z,17.23
2019-02-09T14:11:53.408Z,21.60
2019-02-09T14:15:57.770Z,20.90
2019-02-09T14:20:02.486Z,19.40
2019-02-09T14:24:06.813Z,16.07
2019-02-09T14:28:15.266Z,19.13
2019-02-09T14:32:19.698Z,21.03
2019-02-09T14:36:23.914Z,19.13
2019-02-09T14:40:30.325Z,18.50
2019-02-09T14:44:34.559Z,18.40
2019-02-09T14:48:40.056Z,19.87
2019-02-09T14:52:44.264Z,15.70
2019-02-09T14:56:48.498Z,19.50
2019-02-09T15:00:54.002Z,15.53
2019-02-09T15:04:58.368Z,18.27
2019-02-09T15:09:03.463Z,21.47
2019-02-09T15:13:09.305Z,18.80
2019-02-09T15:17:13.524Z,18.13
2019-02-09T15:21:18.584Z,18.97
2019-02-09T15:25:22.815Z,18.70
2019-02-09T15:29:27.031Z,15.73
2019-02-09T15:33:31.238Z,19.30
2019-02-09T15:37:35.471Z,16.00
2019-02-09T15:41:39.767Z,18.83
2019-02-09T15:45:44.988Z,19.70
2019-02-09T15:49:49.205Z,18.40
2019-02-09T15:53:53.414Z,18.90
2019-02-09T15:57:57.639Z,18.20
2019-02-09T16:02:01.864Z,19.30
2019-02-09T16:06:06.451Z,18.63
2019-02-09T16:10:11.157Z,17.90
2019-02-09T16:14:15.385Z,18.27
2019-02-09T16:18:19.562Z,18.83
2019-02-09T16:22:23.775Z,19.10
2019-02-09T16:26:27.999Z,20.73
2019-02-09T16:30:32.170Z,19.73
2019-02-09T16:34:36.803Z,19.53
2019-02-09T16:38:40.992Z,21.67
2019-02-09T16:42:56.568Z,19.40
2019-02-09T16:47:04.069Z,18.00
2019-02-09T16:51:11.205Z,20.57
2019-02-09T16:55:16.413Z,23.00
2019-02-09T16:59:20.903Z,19.67
2019-02-09T17:03:26.841Z,19.93
2019-02-09T17:07:31.036Z,17.40
2019-02-09T17:11:35.815Z,19.53
2019-02-09T17:15:40.033Z,19.73
2019-02-09T17:19:44.739Z,22.73
2019-02-09T17:23:50.437Z,21.00
2019-02-09T17:27:55.597Z,21.57
2019-02-09T17:31:59.844Z,18.63
2019-02-09T17:36:06.314Z,21.83
2019-02-09T17:40:14.057Z,17.50
2019-02-09T17:44:18.278Z,26.93
2019-02-09T17:48:22.575Z,22.47
2019-02-09T17:52:28.404Z,23.20
2019-02-09T17:56:34.645Z,20.70
2019-02-09T18:00:46.073Z,23.70
2019-02-09T18:04:50.594Z,19.70
2019-02-09T18:08:54.806Z,21.03
2019-02-09T18:12:59.003Z,24.70
2019-02-09T18:17:03.629Z,20.57
2019-02-09T18:21:07.854Z,23.27
2019-02-09T18:25:14.039Z,26.53
2019-02-09T18:29:18.249Z,19.60
2019-02-09T18:33:22.425Z,17.53
2019-02-09T18:37:28.655Z,24.20
2019-02-09T18:41:33.917Z,24.07
2019-02-09T18:45:40.898Z,22.00
2019-02-09T18:49:45.156Z,23.40
2019-02-09T18:53:49.348Z,25.10
2019-02-09T18:57:53.871Z,17.10
2019-02-09T19:01:58.125Z,21.43
2019-02-09T19:06:02.511Z,24.33
2019-02-09T19:10:10.094Z,23.17
2019-02-09T19:14:14.682Z,22.10
2019-02-09T19:18:18.872Z,20.67
2019-02-09T19:22:27.378Z,21.27
2019-02-09T19:26:31.956Z,25.47
2019-02-09T19:30:36.367Z,22.37
2019-02-09T19:34:40.574Z,19.40
2019-02-09T19:38:44.795Z,18.63
2019-02-09T19:42:49.546Z,21.90
2019-02-09T19:46:53.763Z,22.60
2019-02-09T19:50:57.957Z,22.77
2019-02-09T19:55:02.908Z,19.63
2019-02-09T19:59:07.113Z,20.33
2019-02-09T20:03:11.469Z,20.07
2019-02-09T20:07:17.074Z,24.13
2019-02-09T20:11:21.277Z,21.03
2019-02-09T20:15:25.731Z,24.00
2019-02-09T20:19:30.020Z,20.33
2019-02-09T20:23:34.147Z,25.30
2019-02-09T20:27:38.427Z,21.10
2019-02-09T20:31:42.632Z,24.97
2019-02-09T20:35:49.172Z,17.30
2019-02-09T20:39:53.363Z,17.83
2019-02-09T20:43:57.612Z,18.03
2019-02-09T20:48:01.833Z,24.00
2019-02-09T20:52:06.209Z,19.50
2019-02-09T20:56:11.631Z,21.70
2019-02-09T21:00:18.624Z,21.43
2019-02-09T21:04:23.429Z,22.30
2019-02-09T21:08:27.617Z,17.77
2019-02-09T21:12:32.052Z,18.27
2019-02-09T21:16:36.250Z,18.07
2019-02-09T21:20:40.442Z,21.70
2019-02-09T21:24:47.339Z,19.00
2019-02-09T21:28:51.554Z,22.57
2019-02-09T21:32:56.143Z,20.83
2019-02-09T21:37:00.325Z,24.10
2019-02-09T21:41:04.753Z,23.70
2019-02-09T21:45:10.594Z,24.30
2019-02-09T21:49:15.247Z,21.77
2019-02-09T21:53:19.467Z,19.83
2019-02-09T21:57:25.471Z,19.47
2019-02-09T22:01:29.704Z,20.03
2019-02-09T22:05:36.158Z,25.13
2019-02-09T22:09:40.322Z,24.47
2019-02-09T22:13:44.590Z,20.57
2019-02-09T22:17:48.738Z,23.97
2019-02-09T22:21:53.462Z,21.37
2019-02-09T22:25:57.905Z,25.10
2019-02-09T22:30:02.220Z,24.47
2019-02-09T22:34:06.789Z,19.83
2019-02-09T22:38:11.100Z,22.47
2019-02-09T22:42:15.496Z,20.80
2019-02-09T22:46:19.671Z,23.03
2019-02-09T22:50:26.892Z,15.33
2019-02-09T22:54:31.102Z,20.30
2019-02-09T22:58:35.496Z,19.70
2019-02-09T23:02:39.717Z,20.07
2019-02-09T23:06:57.546Z,20.70
2019-02-09T23:11:01.796Z,23.47
2019-02-09T23:15:06.887Z,21.33
2019-02-09T23:19:11.129Z,26.83
2019-02-09T23:23:15.672Z,24.17
2019-02-09T23:27:19.884Z,21.70
2019-02-09T23:31:24.409Z,27.43
2019-02-09T23:35:28.714Z,21.73
2019-02-09T23:39:32.948Z,22.63
2019-02-09T23:43:37.634Z,24.43
2019-02-09T23:47:43.633Z,25.60
2019-02-09T23:51:47.988Z,24.57
2019-02-09T23:55:54.626Z,22.80
2019-02-09T23:59:58.883Z,24.77
